createdAt,value
2023-03-22T00:01:16.316Z,21.4
2023-03-22T00:06:38.116Z,21.4
2023-03-22T00:12:01.303Z,21.4
2023-03-22T00:17:39.429Z,21.4
2023-03-22T00:23:31.631Z,21.3
2023-03-22T00:29:25.234Z,21.3
2023-03-22T00:35:02.880Z,21.3
2023-03-22T00:40:55.662Z,21.3
2023-03-22T00:46:49.876Z,21.3
2023-03-22T00:52:27.353Z,21.3
2023-03-22T00:58:04.142Z,21.3
2023-03-22T01:03:58.205Z,21.3
2023-03-22T01:09:50.340Z,21.3
2023-03-22T01:15:13.423Z,21.3
2023-03-22T01:20:35.417Z,21.3
2023-03-22T01:26:27.534Z,21.3
2023-03-22T01:32:24.062Z,21.3
2023-03-22T01:38:17.014Z,21.3
2023-03-22T01:44:10.107Z,21.3
2023-03-22T01:50:03.170Z,21.3
2023-03-22T01:55:40.563Z,21.3
2023-03-22T02:01:34.094Z,21.3
2023-03-22T02:07:26.818Z,21.3
2023-03-22T02:13:07.188Z,21.6
2023-03-22T02:18:45.322Z,22.8
2023-03-22T02:24:37.990Z,24
2023-03-22T02:30:30.996Z,25.2
2023-03-22T02:35:53.429Z,26.3
2023-03-22T02:41:31.465Z,27.3
2023-03-22T02:47:24.765Z,28.2
2023-03-22T02:53:02.301Z,28.9
2023-03-22T02:58:57.537Z,29.6
2023-03-22T03:04:51.387Z,30.1
2023-03-22T03:10:44.020Z,30.6
2023-03-22T03:16:21.170Z,31.1
2023-03-22T03:22:14.143Z,31.6
2023-03-22T03:28:07.284Z,32.1
2023-03-22T03:33:45.413Z,32.6
2023-03-22T03:39:38.258Z,33
2023-03-22T03:45:15.396Z,33.2
2023-03-22T03:50:53.290Z,33.4
2023-03-22T03:56:31.732Z,33.6
2023-03-22T04:01:38.110Z,33.7
2023-03-22T04:07:31.340Z,33.8
2023-03-22T04:13:25.674Z,33.9
2023-03-22T04:19:18.424Z,33.9
2023-03-22T04:25:11.009Z,33.9
2023-03-22T04:31:04.168Z,34
2023-03-22T04:36:26.585Z,34.1
2023-03-22T04:42:19.682Z,34.1
2023-03-22T04:48:13.870Z,34.1
2023-03-22T04:54:06.452Z,34.1
2023-03-22T04:59:28.427Z,34.1
2023-03-22T05:05:22.114Z,34.1
2023-03-22T05:11:16.304Z,34.1
2023-03-22T05:17:10.038Z,34.1
2023-03-22T05:23:03.751Z,34.1
2023-03-22T05:34:38.023Z,34.1
2023-03-22T05:40:00.303Z,34.1
2023-03-22T05:45:52.962Z,34.1
2023-03-22T05:51:31.077Z,34
2023-03-22T05:57:11.142Z,33.9
2023-03-22T06:03:04.084Z,33.9
2023-03-22T06:08:42.964Z,33.9
2023-03-22T06:14:50.938Z,34
2023-03-22T06:20:43.431Z,33.9
2023-03-22T06:26:35.275Z,33.9
2023-03-22T06:32:28.956Z,33.8
2023-03-22T06:38:06.322Z,33.6
2023-03-22T06:43:57.933Z,33
2023-03-22T06:49:51.213Z,32.2
2023-03-22T06:55:46.573Z,31.5
2023-03-22T07:01:39.475Z,31
2023-03-22T07:07:33.076Z,30.2
2023-03-22T07:12:54.880Z,29.2
2023-03-22T07:18:49.782Z,27.9
2023-03-22T07:24:54.018Z,26.9
2023-03-22T07:30:49.005Z,26
2023-03-22T07:36:41.922Z,25.4
2023-03-22T07:42:35.552Z,24.9
2023-03-22T07:48:47.272Z,24.6
2023-03-22T07:54:50.005Z,24.3
2023-03-22T08:00:30.610Z,23.6
2023-03-22T08:06:22.673Z,23
2023-03-22T08:12:14.010Z,22.5
2023-03-22T08:18:17.101Z,22.1
2023-03-22T08:24:18.067Z,21.8
2023-03-22T08:30:10.279Z,21.5
2023-03-22T08:36:03.687Z,21.3
2023-03-22T08:47:36.206Z,21
2023-03-22T08:53:31.453Z,20.8
2023-03-22T08:59:24.575Z,20.4
2023-03-22T09:05:35.702Z,20.2
2023-03-22T09:10:58.884Z,19.9
2023-03-22T09:16:38.607Z,19.8
2023-03-22T09:22:23.985Z,19.6
2023-03-22T09:28:20.179Z,19.4
2023-03-22T09:34:13.405Z,19.4
2023-03-22T09:40:05.917Z,19.2
2023-03-22T09:46:01.748Z,19.1
2023-03-22T09:52:02.639Z,19
2023-03-22T09:57:57.897Z,18.9
2023-03-22T10:03:37.522Z,18.9
2023-03-22T10:09:30.743Z,18.8
2023-03-22T10:15:10.586Z,18.8
2023-03-22T10:26:29.017Z,18.6
2023-03-22T10:32:09.116Z,18.6
2023-03-22T10:38:03.326Z,18.5
2023-03-22T10:43:56.344Z,18.4
2023-03-22T10:49:34.429Z,18.4
2023-03-22T10:55:27.831Z,18.4
2023-03-22T11:01:19.725Z,18.3
2023-03-22T11:06:58.011Z,18.3
2023-03-22T11:12:51.884Z,18.3
2023-03-22T11:18:44.980Z,18.3
2023-03-22T11:24:38.622Z,18.3
2023-03-22T11:30:20.167Z,18.2
2023-03-22T11:36:13.201Z,18.2
2023-03-22T11:42:10.357Z,18.2
2023-03-22T11:48:05.707Z,18.1
2023-03-22T11:54:00.158Z,18.1
2023-03-22T11:59:37.257Z,18.1
2023-03-22T12:05:19.347Z,18.1
2023-03-22T12:11:12.896Z,18.1
2023-03-22T12:16:51.429Z,18
2023-03-22T12:22:13.968Z,18
2023-03-22T12:27:51.098Z,18
2023-03-22T12:33:47.457Z,18
2023-03-22T12:39:37.637Z,18
2023-03-22T12:45:53.828Z,19
2023-03-22T12:51:47.155Z,17.9
2023-03-22T12:57:31.679Z,18.1
2023-03-22T13:03:27.283Z,18.1
2023-03-22T13:09:05.140Z,18.2
2023-03-22T13:14:45.287Z,18.1
2023-03-22T13:20:46.851Z,18.3
2023-03-22T13:26:12.579Z,18.8
2023-03-22T13:31:50.559Z,19.1
2023-03-22T13:37:45.901Z,19.6
2023-03-22T13:43:22.670Z,20.4
2023-03-22T13:49:17.635Z,20.8
2023-03-22T13:54:41.200Z,21
2023-03-22T14:00:43.338Z,21.4
2023-03-22T14:06:38.011Z,21.6
2023-03-22T14:12:31.088Z,21.8
2023-03-22T14:18:08.633Z,22.8
2023-03-22T14:47:08.061Z,22.3
2023-03-22T14:53:00.531Z,22.1
2023-03-22T14:58:42.311Z,22.1
2023-03-22T15:04:37.339Z,22.1
2023-03-22T15:10:31.040Z,22
2023-03-22T15:16:21.790Z,22
2023-03-22T15:21:58.254Z,22.1
2023-03-22T15:27:52.557Z,22
2023-03-22T15:33:27.386Z,21.3
2023-03-22T15:39:32.737Z,21.3
2023-03-22T15:45:25.029Z,21.2
2023-03-22T15:51:02.576Z,20.8
2023-03-22T15:56:41.184Z,19.9
2023-03-22T16:02:35.970Z,19.7
2023-03-22T16:08:11.088Z,19.5
2023-03-22T16:13:31.043Z,19.4
2023-03-22T16:19:10.556Z,19.4
2023-03-22T16:25:01.237Z,19.3
2023-03-22T16:30:51.820Z,19.3
2023-03-22T16:36:50.905Z,19.1
2023-03-22T16:42:41.483Z,18.8
2023-03-22T16:48:21.255Z,18.6
2023-03-22T16:54:14.362Z,18.3
2023-03-22T17:00:06.536Z,18.1
2023-03-22T17:05:45.617Z,17.8
2023-03-22T17:11:38.768Z,17.6
2023-03-22T17:17:29.934Z,17.6
2023-03-22T17:22:50.486Z,17.7
2023-03-22T17:28:44.549Z,17.8
2023-03-22T17:35:14.630Z,17.9
2023-03-22T17:42:27.170Z,17.9
2023-03-22T17:49:53.569Z,18
2023-03-22T17:59:04.487Z,18
2023-03-22T18:04:33.066Z,18.1
2023-03-22T18:10:52.110Z,18.1
2023-03-22T18:17:25.399Z,18.1
2023-03-22T18:24:00.828Z,18.1
2023-03-22T18:30:05.409Z,18.1
2023-03-22T18:36:23.162Z,18.1
2023-03-22T18:58:53.125Z,18.1
2023-03-22T19:05:08.270Z,18.2
2023-03-22T19:11:33.786Z,18.2
2023-03-22T19:18:52.228Z,18.1
2023-03-22T19:25:11.409Z,18.2
2023-03-22T19:31:21.718Z,18.2
2023-03-22T19:37:47.376Z,18.2
2023-03-22T19:45:21.318Z,18.2
2023-03-22T19:51:26.477Z,18.2
2023-03-22T19:58:09.728Z,18.3
2023-03-22T20:04:31.801Z,18.3
2023-03-22T20:10:35.898Z,18.3
2023-03-22T20:16:29.612Z,18.3
2023-03-22T20:22:15.740Z,18.3
2023-03-22T20:28:07.028Z,18.4
2023-03-22T20:33:44.571Z,18.6
2023-03-22T20:38:50.716Z,18.9
2023-03-22T20:44:27.092Z,19.4
2023-03-22T20:50:20.226Z,20
2023-03-22T20:55:56.473Z,20.6
2023-03-22T21:01:48.830Z,21.3
2023-03-22T21:07:25.676Z,21.9
2023-03-22T21:13:17.792Z,22.6
2023-03-22T21:19:09.203Z,23.3
2023-03-22T21:25:20.943Z,23.8
2023-03-22T21:31:15.077Z,24.2
2023-03-22T21:36:50.533Z,24.3
2023-03-22T21:42:27.193Z,24.4
2023-03-22T21:48:18.668Z,24.4
2023-03-22T21:54:09.688Z,24.4
2023-03-22T22:00:03.584Z,24.3
2023-03-22T22:05:56.138Z,24
2023-03-22T22:11:32.304Z,23.6
2023-03-22T22:17:10.202Z,23.3
2023-03-22T22:22:48.277Z,22.9
2023-03-22T22:28:23.953Z,22.8
2023-03-22T22:34:16.382Z,22.6
2023-03-22T22:40:09.664Z,22.4
2023-03-22T22:46:02.404Z,22.3
2023-03-22T22:51:40.365Z,22.2
2023-03-22T22:57:33.933Z,22.1
2023-03-22T23:03:11.177Z,22.1
2023-03-22T23:08:32.544Z,22
2023-03-22T23:14:25.412Z,22
2023-03-22T23:20:21.497Z,22
2023-03-22T23:25:45.263Z,21.9
2023-03-22T23:31:43.022Z,21.9
2023-03-22T23:37:18.703Z,21.9
2023-03-22T23:42:56.951Z,21.9
2023-03-22T23:48:52.889Z,21.8
2023-03-22T23:54:45.880Z,21.8
